sensor_id;sensor_type;location;lat;lon;timestamp;pressure;altitude;pressure_sealevel;temperature;humidity
48964;BME280;34776;48.180;16.420;2023-03-03T00:01:49;100021.94;;;2.77;58.04
48964;BME280;34776;48.180;16.420;2023-03-03T00:04:14;100025.47;;;2.76;58.09
48964;BME280;34776;48.180;16.420;2023-03-03T00:06:40;100021.13;;;2.73;58.14
48964;BME280;34776;48.180;16.420;2023-03-03T00:09:05;100024.66;;;2.71;58.35
48964;BME280;34776;48.180;16.420;2023-03-03T00:11:30;100020.34;;;2.67;58.51
48964;BME280;34776;48.180;16.420;2023-03-03T00:13:56;100023.88;;;2.66;58.64
48964;BME280;34776;48.180;16.420;2023-03-03T00:16:28;100024.75;;;2.64;58.68
48964;BME280;34776;48.180;16.420;2023-03-03T00:18:54;100016.00;;;2.64;58.79
48964;BME280;34776;48.180;16.420;2023-03-03T00:23:51;100009.06;;;2.61;58.93
48964;BME280;34776;48.180;16.420;2023-03-03T00:26:22;100015.22;;;2.60;58.85
48964;BME280;34776;48.180;16.420;2023-03-03T00:28:52;100008.22;;;2.59;58.97
48964;BME280;34776;48.180;16.420;2023-03-03T00:31:21;100004.75;;;2.57;58.97
48964;BME280;34776;48.180;16.420;2023-03-03T00:33:52;100010.06;;;2.54;59.20
48964;BME280;34776;48.180;16.420;2023-03-03T00:36:48;100010.09;;;2.51;59.91
48964;BME280;34776;48.180;16.420;2023-03-03T00:41:44;100003.94;;;2.54;59.36
48964;BME280;34776;48.180;16.420;2023-03-03T00:47:02;100004.91;;;2.48;59.47
48964;BME280;34776;48.180;16.420;2023-03-03T00:49:36;100003.16;;;2.49;59.52
48964;BME280;34776;48.180;16.420;2023-03-03T00:52:01;99999.66;;;2.48;59.53
48964;BME280;34776;48.180;16.420;2023-03-03T00:54:26;99997.06;;;2.47;59.55
48964;BME280;34776;48.180;16.420;2023-03-03T00:56:52;99995.31;;;2.46;59.57
48964;BME280;34776;48.180;16.420;2023-03-03T00:59:17;99995.34;;;2.44;59.52
48964;BME280;34776;48.180;16.420;2023-03-03T01:01:42;99990.97;;;2.44;59.88
48964;BME280;34776;48.180;16.420;2023-03-03T01:04:08;99991.84;;;2.43;59.98
48964;BME280;34776;48.180;16.420;2023-03-03T01:06:33;99981.41;;;2.42;59.97
48964;BME280;34776;48.180;16.420;2023-03-03T01:08:58;99979.63;;;2.42;60.03
48964;BME280;34776;48.180;16.420;2023-03-03T01:11:25;99981.34;;;2.43;60.24
48964;BME280;34776;48.180;16.420;2023-03-03T01:13:52;99980.50;;;2.43;60.12
48964;BME280;34776;48.180;16.420;2023-03-03T01:16:18;99976.19;;;2.39;60.06
48964;BME280;34776;48.180;16.420;2023-03-03T01:18:44;99978.81;;;2.39;60.06
48964;BME280;34776;48.180;16.420;2023-03-03T01:21:10;99973.63;;;2.36;60.13
48964;BME280;34776;48.180;16.420;2023-03-03T01:23:36;99980.59;;;2.37;60.23
48964;BME280;34776;48.180;16.420;2023-03-03T01:26:02;99974.50;;;2.35;60.16
48964;BME280;34776;48.180;16.420;2023-03-03T01:28:28;99978.91;;;2.33;60.34
48964;BME280;34776;48.180;16.420;2023-03-03T01:30:53;99969.34;;;2.30;60.59
48964;BME280;34776;48.180;16.420;2023-03-03T01:33:19;99970.25;;;2.29;60.53
48964;BME280;34776;48.180;16.420;2023-03-03T01:35:45;99970.25;;;2.28;60.97
48964;BME280;34776;48.180;16.420;2023-03-03T01:38:12;99965.00;;;2.28;60.50
48964;BME280;34776;48.180;16.420;2023-03-03T01:40:37;99965.94;;;2.25;60.53
48964;BME280;34776;48.180;16.420;2023-03-03T01:43:03;99969.44;;;2.22;60.64
48964;BME280;34776;48.180;16.420;2023-03-03T01:45:31;99966.88;;;2.19;60.81
48964;BME280;34776;48.180;16.420;2023-03-03T01:48:10;99966.94;;;2.16;60.89
48964;BME280;34776;48.180;16.420;2023-03-03T01:50:48;99973.94;;;2.14;61.00
48964;BME280;34776;48.180;16.420;2023-03-03T01:53:21;99972.19;;;2.13;61.00
48964;BME280;34776;48.180;16.420;2023-03-03T01:55:49;99966.97;;;2.13;61.14
48964;BME280;34776;48.180;16.420;2023-03-03T01:58:30;99959.13;;;2.12;61.17
48964;BME280;34776;48.180;16.420;2023-03-03T02:01:02;99966.09;;;2.13;61.09
48964;BME280;34776;48.180;16.420;2023-03-03T02:03:28;99968.75;;;2.11;61.18
48964;BME280;34776;48.180;16.420;2023-03-03T02:05:58;99966.97;;;2.13;61.22
48964;BME280;34776;48.180;16.420;2023-03-03T02:08:31;99971.28;;;2.17;61.28
48964;BME280;34776;48.180;16.420;2023-03-03T02:10:59;99966.81;;;2.22;61.30
48964;BME280;34776;48.180;16.420;2023-03-03T02:13:25;99964.09;;;2.30;61.47
48964;BME280;34776;48.180;16.420;2023-03-03T02:15:50;99963.03;;;2.42;61.42
48964;BME280;34776;48.180;16.420;2023-03-03T02:18:19;99964.56;;;2.55;61.09
48964;BME280;34776;48.180;16.420;2023-03-03T02:20:53;99957.38;;;2.67;61.20
48964;BME280;34776;48.180;16.420;2023-03-03T02:23:37;99960.72;;;2.78;60.89
48964;BME280;34776;48.180;16.420;2023-03-03T02:26:08;99956.97;;;2.90;60.67
48964;BME280;34776;48.180;16.420;2023-03-03T02:28:35;99955.19;;;2.93;60.69
48964;BME280;34776;48.180;16.420;2023-03-03T02:31:02;99955.97;;;2.98;60.47
48964;BME280;34776;48.180;16.420;2023-03-03T02:33:28;99954.13;;;3.02;60.45
48964;BME280;34776;48.180;16.420;2023-03-03T02:35:54;99956.75;;;3.03;60.41
48964;BME280;34776;48.180;16.420;2023-03-03T02:38:29;99949.78;;;3.02;60.41
48964;BME280;34776;48.180;16.420;2023-03-03T02:44:01;99952.25;;;3.09;60.54
48964;BME280;34776;48.180;16.420;2023-03-03T02:46:39;99944.28;;;3.15;60.38
48964;BME280;34776;48.180;16.420;2023-03-03T02:49:07;99946.03;;;3.16;60.36
48964;BME280;34776;48.180;16.420;2023-03-03T02:51:33;99945.09;;;3.17;60.44
48964;BME280;34776;48.180;16.420;2023-03-03T02:53:59;99936.34;;;3.18;60.24
48964;BME280;34776;48.180;16.420;2023-03-03T02:56:25;99945.91;;;3.22;60.30
48964;BME280;34776;48.180;16.420;2023-03-03T02:58:51;99942.31;;;3.26;60.09
48964;BME280;34776;48.180;16.420;2023-03-03T03:01:17;99949.28;;;3.27;60.38
48964;BME280;34776;48.180;16.420;2023-03-03T03:03:42;99947.59;;;3.26;60.32
48964;BME280;34776;48.180;16.420;2023-03-03T03:06:08;99958.00;;;3.29;60.21
48964;BME280;34776;48.180;16.420;2023-03-03T03:08:34;99955.44;;;3.28;60.27
48964;BME280;34776;48.180;16.420;2023-03-03T03:10:59;99946.72;;;3.25;60.41
48964;BME280;34776;48.180;16.420;2023-03-03T03:13:24;99949.38;;;3.24;60.27
48964;BME280;34776;48.180;16.420;2023-03-03T03:15:50;99946.78;;;3.21;60.59
48964;BME280;34776;48.180;16.420;2023-03-03T03:18:15;99942.47;;;3.17;60.37
48964;BME280;34776;48.180;16.420;2023-03-03T03:20:41;99946.91;;;3.15;60.65
48964;BME280;34776;48.180;16.420;2023-03-03T03:23:07;99939.09;;;3.12;60.62
48964;BME280;34776;48.180;16.420;2023-03-03T03:25:33;99937.34;;;3.11;60.72
48964;BME280;34776;48.180;16.420;2023-03-03T03:27:59;99939.13;;;3.09;60.56
48964;BME280;34776;48.180;16.420;2023-03-03T03:30:24;99942.69;;;3.06;60.62
48964;BME280;34776;48.180;16.420;2023-03-03T03:32:49;99937.53;;;3.01;60.81
48964;BME280;34776;48.180;16.420;2023-03-03T03:35:15;99934.97;;;2.98;60.63
48964;BME280;34776;48.180;16.420;2023-03-03T03:37:42;99941.13;;;2.96;60.79
48964;BME280;34776;48.180;16.420;2023-03-03T03:40:08;99927.22;;;2.92;60.80
48964;BME280;34776;48.180;16.420;2023-03-03T03:42:33;99927.25;;;2.89;61.01
48964;BME280;34776;48.180;16.420;2023-03-03T03:44:59;99933.44;;;2.85;60.91
48964;BME280;34776;48.180;16.420;2023-03-03T03:47:24;99933.53;;;2.80;60.87
48964;BME280;34776;48.180;16.420;2023-03-03T03:49:49;99924.00;;;2.75;60.88
48964;BME280;34776;48.180;16.420;2023-03-03T03:52:15;99934.56;;;2.72;60.75
48964;BME280;34776;48.180;16.420;2023-03-03T03:54:40;99928.50;;;2.68;60.92
48964;BME280;34776;48.180;16.420;2023-03-03T03:57:06;99929.50;;;2.62;60.71
48964;BME280;34776;48.180;16.420;2023-03-03T03:59:31;99926.03;;;2.59;60.89
48964;BME280;34776;48.180;16.420;2023-03-03T04:01:56;99926.97;;;2.56;60.91
48964;BME280;34776;48.180;16.420;2023-03-03T04:04:22;99924.38;;;2.53;60.87
48964;BME280;34776;48.180;16.420;2023-03-03T04:06:47;99926.22;;;2.48;61.00
48964;BME280;34776;48.180;16.420;2023-03-03T04:09:14;99928.03;;;2.44;61.11
48964;BME280;34776;48.180;16.420;2023-03-03T04:11:39;99939.47;;;2.40;61.18
48964;BME280;34776;48.180;16.420;2023-03-03T04:14:04;99940.38;;;2.38;61.15
48964;BME280;34776;48.180;16.420;2023-03-03T04:16:30;99934.31;;;2.34;61.16
48964;BME280;34776;48.180;16.420;2023-03-03T04:18:55;99943.09;;;2.30;61.26
48964;BME280;34776;48.180;16.420;2023-03-03T04:21:20;99948.38;;;2.29;61.30
48964;BME280;34776;48.180;16.420;2023-03-03T04:23:46;99945.81;;;2.26;61.37
48964;BME280;34776;48.180;16.420;2023-03-03T04:26:11;99946.75;;;2.21;61.29
48964;BME280;34776;48.180;16.420;2023-03-03T04:28:37;99938.09;;;2.16;61.50
48964;BME280;34776;48.180;16.420;2023-03-03T04:31:02;99937.25;;;2.14;61.57
48964;BME280;34776;48.180;16.420;2023-03-03T04:33:28;99945.13;;;2.13;61.55
48964;BME280;34776;48.180;16.420;2023-03-03T04:35:53;99939.03;;;2.11;61.53
48964;BME280;34776;48.180;16.420;2023-03-03T04:38:20;99941.69;;;2.09;61.63
48964;BME280;34776;48.180;16.420;2023-03-03T04:40:46;99954.84;;;2.06;61.65
48964;BME280;34776;48.180;16.420;2023-03-03T04:43:11;99953.97;;;2.06;61.83
48964;BME280;34776;48.180;16.420;2023-03-03T04:45:36;99948.75;;;2.04;61.71
48964;BME280;34776;48.180;16.420;2023-03-03T04:48:02;99951.41;;;2.01;61.80
48964;BME280;34776;48.180;16.420;2023-03-03T04:50:27;99943.63;;;1.96;61.90
48964;BME280;34776;48.180;16.420;2023-03-03T04:52:53;99953.25;;;1.96;61.93
48964;BME280;34776;48.180;16.420;2023-03-03T04:55:18;99948.06;;;1.91;61.91
48964;BME280;34776;48.180;16.420;2023-03-03T04:57:44;99946.34;;;1.89;62.07
48964;BME280;34776;48.180;16.420;2023-03-03T05:00:11;99950.69;;;1.90;61.85
48964;BME280;34776;48.180;16.420;2023-03-03T05:02:38;99955.03;;;1.91;61.97
48964;BME280;34776;48.180;16.420;2023-03-03T05:05:04;99955.94;;;1.88;61.98
48964;BME280;34776;48.180;16.420;2023-03-03T05:07:30;99956.03;;;1.83;62.09
48964;BME280;34776;48.180;16.420;2023-03-03T05:09:55;99962.19;;;1.79;62.34
48964;BME280;34776;48.180;16.420;2023-03-03T05:12:21;99951.72;;;1.76;62.18
48964;BME280;34776;48.180;16.420;2023-03-03T05:14:46;99952.63;;;1.77;62.32
48964;BME280;34776;48.180;16.420;2023-03-03T05:17:11;99960.50;;;1.75;62.51
48964;BME280;34776;48.180;16.420;2023-03-03T05:19:37;99952.66;;;1.74;62.54
48964;BME280;34776;48.180;16.420;2023-03-03T05:22:02;99960.56;;;1.72;62.79
48964;BME280;34776;48.180;16.420;2023-03-03T05:24:27;99952.69;;;1.71;62.76
48964;BME280;34776;48.180;16.420;2023-03-03T05:26:53;99954.47;;;1.70;62.83
48964;BME280;34776;48.180;16.420;2023-03-03T05:29:19;99955.31;;;1.72;62.89
48964;BME280;34776;48.180;16.420;2023-03-03T05:31:44;99955.31;;;1.72;62.90
48964;BME280;34776;48.180;16.420;2023-03-03T05:34:10;99971.03;;;1.72;62.83
48964;BME280;34776;48.180;16.420;2023-03-03T05:36:35;99970.13;;;1.73;62.94
48964;BME280;34776;48.180;16.420;2023-03-03T05:39:00;99982.31;;;1.76;62.94
48964;BME280;34776;48.180;16.420;2023-03-03T05:41:26;99989.25;;;1.80;63.00
48964;BME280;34776;48.180;16.420;2023-03-03T05:43:51;99985.69;;;1.84;62.96
48964;BME280;34776;48.180;16.420;2023-03-03T05:46:17;99989.09;;;1.91;63.04
48964;BME280;34776;48.180;16.420;2023-03-03T05:48:43;99992.50;;;1.99;63.11
48964;BME280;34776;48.180;16.420;2023-03-03T05:51:09;99994.13;;;2.08;62.98
48964;BME280;34776;48.180;16.420;2023-03-03T05:53:34;99998.38;;;2.16;62.82
48964;BME280;34776;48.180;16.420;2023-03-03T05:56:00;99991.22;;;2.28;62.85
48964;BME280;34776;48.180;16.420;2023-03-03T05:58:26;100000.69;;;2.39;62.60
48964;BME280;34776;48.180;16.420;2023-03-03T06:00:51;99999.59;;;2.51;62.33
48964;BME280;34776;48.180;16.420;2023-03-03T06:03:16;100003.81;;;2.63;62.04
48964;BME280;34776;48.180;16.420;2023-03-03T06:05:42;100001.84;;;2.77;62.02
48964;BME280;34776;48.180;16.420;2023-03-03T06:08:07;100004.19;;;2.91;61.88
48964;BME280;34776;48.180;16.420;2023-03-03T06:10:33;100008.28;;;3.09;61.71
48964;BME280;34776;48.180;16.420;2023-03-03T06:12:58;100001.81;;;3.27;61.47
48964;BME280;34776;48.180;16.420;2023-03-03T06:15:25;100005.91;;;3.43;61.10
48964;BME280;34776;48.180;16.420;2023-03-03T06:17:50;100004.81;;;3.54;60.75
48964;BME280;34776;48.180;16.420;2023-03-03T06:20:15;100012.69;;;3.55;60.48
48964;BME280;34776;48.180;16.420;2023-03-03T06:22:42;100007.13;;;3.69;60.26
48964;BME280;34776;48.180;16.420;2023-03-03T06:25:08;100012.97;;;3.83;60.04
48964;BME280;34776;48.180;16.420;2023-03-03T06:27:33;100012.53;;;4.05;59.98
48964;BME280;34776;48.180;16.420;2023-03-03T06:29:59;100013.69;;;4.32;59.75
48964;BME280;34776;48.180;16.420;2023-03-03T06:32:24;100019.38;;;4.53;59.19
48964;BME280;34776;48.180;16.420;2023-03-03T06:34:50;100018.00;;;4.74;58.68
48964;BME280;34776;48.180;16.420;2023-03-03T06:37:15;100026.47;;;4.85;58.28
48964;BME280;34776;48.180;16.420;2023-03-03T06:39:40;100019.03;;;5.02;58.17
48964;BME280;34776;48.180;16.420;2023-03-03T06:42:06;100012.56;;;5.16;57.60
48964;BME280;34776;48.180;16.420;2023-03-03T06:44:33;100014.88;;;5.28;57.46
48964;BME280;34776;48.180;16.420;2023-03-03T06:46:59;100015.44;;;5.39;57.25
48964;BME280;34776;48.180;16.420;2023-03-03T06:49:24;100024.63;;;5.57;56.96
48964;BME280;34776;48.180;16.420;2023-03-03T06:51:50;100024.22;;;5.71;56.53
48964;BME280;34776;48.180;16.420;2023-03-03T06:54:20;100023.38;;;5.70;56.48
48964;BME280;34776;48.180;16.420;2023-03-03T06:56:48;100030.28;;;5.75;56.25
48964;BME280;34776;48.180;16.420;2023-03-03T06:59:18;100027.00;;;5.66;56.02
48964;BME280;34776;48.180;16.420;2023-03-03T07:01:45;100022.78;;;5.61;56.19
48964;BME280;34776;48.180;16.420;2023-03-03T07:04:37;100020.59;;;5.75;55.85
48964;BME280;34776;48.180;16.420;2023-03-03T07:07:31;100032.44;;;5.92;54.95
48964;BME280;34776;48.180;16.420;2023-03-03T07:09:56;100022.50;;;6.03;55.00
48964;BME280;34776;48.180;16.420;2023-03-03T07:12:24;100015.97;;;6.15;54.49
48964;BME280;34776;48.180;16.420;2023-03-03T07:17:34;100030.31;;;6.06;54.33
48964;BME280;34776;48.180;16.420;2023-03-03T07:22:41;100043.31;;;6.42;53.80
48964;BME280;34776;48.180;16.420;2023-03-03T07:25:34;100045.19;;;6.66;53.04
48964;BME280;34776;48.180;16.420;2023-03-03T07:28:19;100047.25;;;6.85;52.35
48964;BME280;34776;48.180;16.420;2023-03-03T07:30:46;100062.59;;;7.00;52.32
48964;BME280;34776;48.180;16.420;2023-03-03T07:33:34;100062.41;;;7.06;51.51
48964;BME280;34776;48.180;16.420;2023-03-03T07:36:02;100064.88;;;7.11;51.89
48964;BME280;34776;48.180;16.420;2023-03-03T07:38:36;100064.22;;;7.04;51.96
48964;BME280;34776;48.180;16.420;2023-03-03T07:41:04;100067.69;;;7.06;51.69
48964;BME280;34776;48.180;16.420;2023-03-03T07:46:23;100070.88;;;6.89;51.33
48964;BME280;34776;48.180;16.420;2023-03-03T07:48:50;100072.53;;;6.92;52.03
48964;BME280;34776;48.180;16.420;2023-03-03T07:51:26;100072.97;;;7.06;52.15
48964;BME280;34776;48.180;16.420;2023-03-03T07:57:10;100070.81;;;8.87;50.73
48964;BME280;34776;48.180;16.420;2023-03-03T07:59:43;100079.38;;;11.48;47.13
48964;BME280;34776;48.180;16.420;2023-03-03T08:02:35;100068.91;;;12.63;43.01
48964;BME280;34776;48.180;16.420;2023-03-03T08:07:45;100053.00;;;16.65;39.47
48964;BME280;34776;48.180;16.420;2023-03-03T08:10:45;100053.25;;;18.61;34.48
48964;BME280;34776;48.180;16.420;2023-03-03T08:13:18;100047.22;;;19.98;34.52
48964;BME280;34776;48.180;16.420;2023-03-03T08:15:45;100036.06;;;21.23;32.88
48964;BME280;34776;48.180;16.420;2023-03-03T08:18:20;100037.81;;;21.53;29.93
48964;BME280;34776;48.180;16.420;2023-03-03T08:20:51;100042.34;;;21.82;30.53
48964;BME280;34776;48.180;16.420;2023-03-03T08:23:18;100030.13;;;22.15;30.20
48964;BME280;34776;48.180;16.420;2023-03-03T08:25:46;100031.81;;;23.09;28.56
48964;BME280;34776;48.180;16.420;2023-03-03T08:28:12;100036.94;;;23.12;27.87
48964;BME280;34776;48.180;16.420;2023-03-03T08:30:38;100032.41;;;23.03;27.54
48964;BME280;34776;48.180;16.420;2023-03-03T08:33:03;100038.13;;;23.71;27.38
48964;BME280;34776;48.180;16.420;2023-03-03T08:35:29;100041.97;;;23.87;26.87
48964;BME280;34776;48.180;16.420;2023-03-03T08:37:54;100049.75;;;23.82;26.53
48964;BME280;34776;48.180;16.420;2023-03-03T08:40:19;100049.59;;;23.65;25.71
48964;BME280;34776;48.180;16.420;2023-03-03T08:42:45;100050.97;;;23.69;25.41
48964;BME280;34776;48.180;16.420;2023-03-03T08:45:11;100046.44;;;24.22;24.83
48964;BME280;34776;48.180;16.420;2023-03-03T08:47:37;100035.53;;;24.48;24.92
48964;BME280;34776;48.180;16.420;2023-03-03T08:50:03;100050.56;;;24.35;24.74
48964;BME280;34776;48.180;16.420;2023-03-03T08:52:29;100055.94;;;24.52;24.88
48964;BME280;34776;48.180;16.420;2023-03-03T08:54:54;100043.38;;;24.51;24.69
48964;BME280;34776;48.180;16.420;2023-03-03T08:57:20;100049.91;;;24.06;24.56
48964;BME280;34776;48.180;16.420;2023-03-03T08:59:45;100041.03;;;22.88;24.89
48964;BME280;34776;48.180;16.420;2023-03-03T09:02:12;100055.13;;;21.89;25.75
48964;BME280;34776;48.180;16.420;2023-03-03T09:04:37;100046.31;;;21.09;26.07
48964;BME280;34776;48.180;16.420;2023-03-03T09:07:03;100063.31;;;20.71;26.70
48964;BME280;34776;48.180;16.420;2023-03-03T09:09:28;100060.13;;;21.16;26.25
48964;BME280;34776;48.180;16.420;2023-03-03T09:11:57;100064.41;;;20.59;24.86
48964;BME280;34776;48.180;16.420;2023-03-03T09:14:27;100075.09;;;20.08;26.27
48964;BME280;34776;48.180;16.420;2023-03-03T09:16:54;100073.38;;;20.38;26.68
48964;BME280;34776;48.180;16.420;2023-03-03T09:19:26;100078.88;;;20.58;26.06
48964;BME280;34776;48.180;16.420;2023-03-03T09:21:55;100082.81;;;20.44;26.57
48964;BME280;34776;48.180;16.420;2023-03-03T09:24:29;100083.31;;;19.86;26.17
48964;BME280;34776;48.180;16.420;2023-03-03T09:26:55;100088.81;;;18.76;27.96
48964;BME280;34776;48.180;16.420;2023-03-03T09:29:28;100088.97;;;18.30;27.76
48964;BME280;34776;48.180;16.420;2023-03-03T09:31:54;100085.13;;;17.87;29.13
48964;BME280;34776;48.180;16.420;2023-03-03T09:34:27;100083.00;;;17.79;28.80
48964;BME280;34776;48.180;16.420;2023-03-03T09:36:57;100088.56;;;17.06;29.98
48964;BME280;34776;48.180;16.420;2023-03-03T09:39:26;100096.44;;;16.08;30.85
48964;BME280;34776;48.180;16.420;2023-03-03T09:42:06;100102.28;;;15.34;31.72
48964;BME280;34776;48.180;16.420;2023-03-03T09:55:28;100103.53;;;12.47;35.38
48964;BME280;34776;48.180;16.420;2023-03-03T10:00:48;100096.69;;;11.92;36.46
48964;BME280;34776;48.180;16.420;2023-03-03T10:03:57;100099.59;;;11.70;36.80
48964;BME280;34776;48.180;16.420;2023-03-03T10:06:31;100101.69;;;11.81;36.91
48964;BME280;34776;48.180;16.420;2023-03-03T10:17:24;100086.25;;;11.52;38.17
48964;BME280;34776;48.180;16.420;2023-03-03T10:25:39;100081.41;;;11.61;37.65
48964;BME280;34776;48.180;16.420;2023-03-03T10:36:37;100065.25;;;13.11;35.89
48964;BME280;34776;48.180;16.420;2023-03-03T10:39:22;100057.50;;;14.12;34.48
48964;BME280;34776;48.180;16.420;2023-03-03T10:47:18;100029.22;;;13.79;33.65
48964;BME280;34776;48.180;16.420;2023-03-03T10:55:42;100024.81;;;13.03;34.80
48964;BME280;34776;48.180;16.420;2023-03-03T10:58:11;100026.06;;;12.82;35.79
48964;BME280;34776;48.180;16.420;2023-03-03T11:06:24;100035.19;;;13.24;35.03
48964;BME280;34776;48.180;16.420;2023-03-03T11:11:41;100030.53;;;13.57;34.33
48964;BME280;34776;48.180;16.420;2023-03-03T11:14:18;100038.22;;;13.78;34.43
48964;BME280;34776;48.180;16.420;2023-03-03T11:17:05;100035.25;;;13.83;33.28
48964;BME280;34776;48.180;16.420;2023-03-03T11:27:52;100029.97;;;13.67;33.97
48964;BME280;34776;48.180;16.420;2023-03-03T11:33:12;100028.56;;;13.31;34.48
48964;BME280;34776;48.180;16.420;2023-03-03T11:35:45;100022.22;;;13.33;35.17
48964;BME280;34776;48.180;16.420;2023-03-03T11:40:50;100020.44;;;13.48;34.40
48964;BME280;34776;48.180;16.420;2023-03-03T11:43:43;100018.66;;;13.33;33.99
48964;BME280;34776;48.180;16.420;2023-03-03T11:46:16;100000.41;;;13.55;34.56
48964;BME280;34776;48.180;16.420;2023-03-03T11:51:30;99993.84;;;13.90;33.11
48964;BME280;34776;48.180;16.420;2023-03-03T11:54:02;99991.47;;;14.14;33.54
48964;BME280;34776;48.180;16.420;2023-03-03T12:01:46;99977.41;;;14.10;33.08
48964;BME280;34776;48.180;16.420;2023-03-03T12:04:19;99984.75;;;14.07;33.48
48964;BME280;34776;48.180;16.420;2023-03-03T12:12:23;99964.72;;;14.28;33.26
48964;BME280;34776;48.180;16.420;2023-03-03T12:14:53;99962.22;;;14.25;33.73
48964;BME280;34776;48.180;16.420;2023-03-03T12:17:47;99957.41;;;14.45;33.36
48964;BME280;34776;48.180;16.420;2023-03-03T12:25:42;99950.88;;;14.63;32.96
48964;BME280;34776;48.180;16.420;2023-03-03T12:28:31;99950.91;;;14.21;32.88
48964;BME280;34776;48.180;16.420;2023-03-03T12:31:15;99948.00;;;14.25;32.85
48964;BME280;34776;48.180;16.420;2023-03-03T12:42:56;99928.06;;;14.85;32.63
48964;BME280;34776;48.180;16.420;2023-03-03T12:50:46;99924.66;;;14.55;32.50
48964;BME280;34776;48.180;16.420;2023-03-03T12:55:48;99921.78;;;14.58;32.44
48964;BME280;34776;48.180;16.420;2023-03-03T13:04:27;99916.66;;;15.08;32.56
48964;BME280;34776;48.180;16.420;2023-03-03T13:06:29;99915.41;;;15.27;31.98
48964;BME280;34776;48.180;16.420;2023-03-03T13:14:10;99913.50;;;14.89;31.31
48964;BME280;34776;48.180;16.420;2023-03-03T13:16:43;99913.09;;;14.95;31.57
48964;BME280;34776;48.180;16.420;2023-03-03T13:19:19;99909.03;;;15.02;30.84
48964;BME280;34776;48.180;16.420;2023-03-03T13:22:08;99901.03;;;15.02;31.18
48964;BME280;34776;48.180;16.420;2023-03-03T13:27:12;99905.75;;;14.71;31.77
48964;BME280;34776;48.180;16.420;2023-03-03T13:29:49;99896.75;;;14.59;31.75
48964;BME280;34776;48.180;16.420;2023-03-03T13:32:21;99892.72;;;14.52;32.43
48964;BME280;34776;48.180;16.420;2023-03-03T13:35:31;99886.91;;;14.60;31.48
48964;BME280;34776;48.180;16.420;2023-03-03T13:37:58;99895.69;;;14.62;32.36
48964;BME280;34776;48.180;16.420;2023-03-03T13:41:19;99881.59;;;14.73;32.00
48964;BME280;34776;48.180;16.420;2023-03-03T13:43:45;99889.97;;;14.54;32.60
48964;BME280;34776;48.180;16.420;2023-03-03T13:46:19;99884.03;;;14.49;32.69
48964;BME280;34776;48.180;16.420;2023-03-03T13:52:05;99889.44;;;14.21;32.95
48964;BME280;34776;48.180;16.420;2023-03-03T13:54:45;99887.66;;;13.93;33.67
48964;BME280;34776;48.180;16.420;2023-03-03T13:57:43;99886.91;;;13.91;33.80
48964;BME280;34776;48.180;16.420;2023-03-03T14:00:27;99884.72;;;13.84;33.78
48964;BME280;34776;48.180;16.420;2023-03-03T14:05:47;99887.31;;;13.71;33.89
48964;BME280;34776;48.180;16.420;2023-03-03T14:19:16;99874.53;;;13.47;34.47
48964;BME280;34776;48.180;16.420;2023-03-03T14:22:11;99878.44;;;13.56;34.29
48964;BME280;34776;48.180;16.420;2023-03-03T14:27:24;99870.56;;;13.40;34.52
48964;BME280;34776;48.180;16.420;2023-03-03T14:29:50;99866.88;;;13.27;34.54
48964;BME280;34776;48.180;16.420;2023-03-03T14:32:22;99870.88;;;13.19;34.82
48964;BME280;34776;48.180;16.420;2023-03-03T14:34:57;99871.63;;;13.07;34.97
48964;BME280;34776;48.180;16.420;2023-03-03T14:37:43;99870.31;;;13.00;34.72
48964;BME280;34776;48.180;16.420;2023-03-03T14:40:21;99868.78;;;12.96;35.21
48964;BME280;34776;48.180;16.420;2023-03-03T14:45:20;99872.78;;;13.03;35.10
48964;BME280;34776;48.180;16.420;2023-03-03T14:47:47;99879.06;;;13.02;35.12
48964;BME280;34776;48.180;16.420;2023-03-03T14:50:35;99872.00;;;13.01;35.14
48964;BME280;34776;48.180;16.420;2023-03-03T14:53:10;99868.13;;;13.07;35.28
48964;BME280;34776;48.180;16.420;2023-03-03T14:55:38;99865.06;;;12.98;35.32
48964;BME280;34776;48.180;16.420;2023-03-03T14:58:34;99862.28;;;12.86;35.37
48964;BME280;34776;48.180;16.420;2023-03-03T15:01:14;99863.06;;;12.72;35.74
48964;BME280;34776;48.180;16.420;2023-03-03T15:03:46;99868.69;;;12.67;35.73
48964;BME280;34776;48.180;16.420;2023-03-03T15:06:38;99865.97;;;12.53;35.44
48964;BME280;34776;48.180;16.420;2023-03-03T15:11:54;99871.50;;;12.50;35.47
48964;BME280;34776;48.180;16.420;2023-03-03T15:14:34;99878.13;;;12.43;35.26
48964;BME280;34776;48.180;16.420;2023-03-03T15:17:23;99870.81;;;12.30;34.17
48964;BME280;34776;48.180;16.420;2023-03-03T15:20:12;99863.22;;;12.24;34.07
48964;BME280;34776;48.180;16.420;2023-03-03T15:25:46;99866.56;;;12.12;33.79
48964;BME280;34776;48.180;16.420;2023-03-03T15:49:08;99857.66;;;11.48;31.21
48964;BME280;34776;48.180;16.420;2023-03-03T15:56:53;99863.28;;;11.26;32.28
48964;BME280;34776;48.180;16.420;2023-03-03T16:04:37;99871.06;;;11.13;32.67
48964;BME280;34776;48.180;16.420;2023-03-03T16:09:40;99872.88;;;10.95;32.69
48964;BME280;34776;48.180;16.420;2023-03-03T16:17:31;99881.00;;;10.74;32.95
48964;BME280;34776;48.180;16.420;2023-03-03T16:22:55;99879.13;;;10.59;33.16
48964;BME280;34776;48.180;16.420;2023-03-03T16:28:13;99892.31;;;10.43;33.71
48964;BME280;34776;48.180;16.420;2023-03-03T16:30:51;99891.03;;;10.33;33.86
48964;BME280;34776;48.180;16.420;2023-03-03T16:33:33;99897.63;;;10.24;33.93
48964;BME280;34776;48.180;16.420;2023-03-03T16:39:09;99895.97;;;10.04;34.46
48964;BME280;34776;48.180;16.420;2023-03-03T16:41:41;99906.19;;;10.12;39.89
48964;BME280;34776;48.180;16.420;2023-03-03T16:44:19;99906.34;;;10.09;36.75
48964;BME280;34776;48.180;16.420;2023-03-03T16:46:49;99911.38;;;9.96;35.97
48964;BME280;34776;48.180;16.420;2023-03-03T16:49:20;99906.72;;;9.82;35.81